Hudson Bay, Canada
Current Conditions -  °F | °C
As of 10:00 PM on Wednesday 28 Jan 2015 (Local Time) from CYBU Reporting Station
Overcast Overcast  
Wind Chill: -21°   Ceiling: 1700
Heat Index: -13°   Visibility: 9mi
Dew Point: -16°   Wind: 12mph
Humidity: 79%   Direction: 320°NW
Pressure: 30.38"   Gusts: 17mph
Location:  52.86°N, 102.39°W
Report Text: CYBU 290400Z AUTO 32010G15KT 9SM OVC017 M13/M16 A3038 RMK SLP324
Loading
Personal Weather Stations






























Interactive Weather Map New forecast layout! Learn more

10-Day Weather Forecast

Advertisements
Track Severe Weather on mobile